createdAt,value
2019-06-10T17:43:25.176Z,100749.90
2019-06-10T17:45:53.919Z,100750.11
2019-06-10T17:48:24.269Z,100758.91
2019-06-10T17:50:52.918Z,100755.09
2019-06-10T19:35:58.603Z,100771.80
2019-06-10T19:38:28.273Z,100781.25
2019-06-10T19:40:58.292Z,100774.95
2019-06-10T19:43:28.311Z,100787.17
2019-06-10T19:45:58.246Z,100826.23
2019-06-10T19:48:27.997Z,100843.21
2019-06-10T19:50:57.412Z,100852.62
2019-06-10T19:53:26.825Z,100861.31
2019-06-10T19:55:56.254Z,100864.47
2019-06-10T19:58:25.672Z,100869.15
2019-06-10T20:00:55.050Z,100869.58
2019-06-10T20:03:24.450Z,100878.66
2019-06-10T20:05:53.931Z,100878.65
2019-06-10T20:08:23.331Z,100873.52
2019-06-10T20:10:53.265Z,100867.59
2019-06-10T20:13:23.249Z,100870.39
2019-06-10T20:15:52.724Z,100864.16
2019-06-10T20:18:22.753Z,100864.97
2019-06-10T20:20:54.018Z,100856.33
2019-06-10T20:23:23.609Z,100862.25
2019-06-10T20:25:53.007Z,100855.92
2019-06-10T20:28:22.693Z,100853.55
2019-06-10T20:30:53.036Z,100852.37
2019-06-10T20:33:36.573Z,100846.45
2019-06-10T20:36:08.039Z,100849.21
2019-06-10T20:38:37.765Z,100853.14
2019-06-10T20:41:07.447Z,100864.58
2019-06-10T20:43:37.282Z,100849.15
2019-06-10T20:46:08.061Z,100846.39
2019-06-10T20:48:38.800Z,100836.52
2019-06-10T20:51:08.422Z,100826.23
2019-06-10T20:53:38.151Z,100826.23
2019-06-10T20:56:07.735Z,100828.95
2019-06-10T20:58:37.132Z,100823.81
2019-06-10T21:01:06.574Z,100825.34
2019-06-10T21:03:35.936Z,100811.90
2019-06-10T21:06:05.710Z,100795.33
2019-06-10T21:08:35.231Z,100808.72
2019-06-10T21:11:04.679Z,100826.83
2019-06-10T21:13:34.055Z,100824.39
2019-06-10T21:16:03.958Z,100823.56
2019-06-10T21:18:33.381Z,100831.80
2019-06-10T21:21:02.689Z,100838.39
2019-06-10T21:23:31.993Z,100842.29
2019-06-10T21:26:02.848Z,100842.29
2019-06-10T21:28:32.849Z,100836.77
2019-06-10T21:31:03.019Z,100824.16
2019-06-10T21:33:33.353Z,100831.25
2019-06-10T21:36:03.879Z,100832.83
2019-06-10T21:38:33.623Z,100830.07
2019-06-10T21:41:03.399Z,100825.77
2019-06-10T21:43:33.264Z,100826.63
2019-06-10T21:46:03.637Z,100827.44
2019-06-10T21:48:33.376Z,100834.13
2019-06-10T21:51:02.923Z,100837.64
2019-06-10T21:53:32.171Z,100836.84
2019-06-10T21:56:01.578Z,100832.55
2019-06-10T21:58:32.784Z,100833.73
2019-06-10T22:01:12.624Z,100836.42
2019-06-10T22:03:33.591Z,100834.52
2019-06-10T22:06:02.982Z,100828.25
2019-06-10T22:08:33.478Z,100820.33
2019-06-10T22:11:03.137Z,100826.64
2019-06-10T22:13:32.910Z,100823.87
2019-06-10T22:16:03.234Z,100823.09
2019-06-10T22:18:32.876Z,100815.59
2019-06-10T22:21:02.905Z,100825.81
2019-06-10T22:23:33.075Z,100828.93
2019-06-10T22:26:02.911Z,100833.60
2019-06-10T22:28:32.916Z,100835.12
2019-06-10T22:31:16.067Z,100841.34
2019-06-10T22:33:33.369Z,100827.88
2019-06-10T22:36:02.790Z,100831.76
2019-06-10T22:38:32.851Z,100833.68
2019-06-10T22:41:03.302Z,100845.08
2019-06-10T22:43:32.926Z,100837.98
2019-06-10T22:46:03.925Z,100839.13
2019-06-10T22:48:33.470Z,100845.81
2019-06-10T22:51:02.884Z,100841.83
2019-06-10T22:53:33.403Z,100846.94
2019-06-10T22:56:03.135Z,100845.73
2019-06-10T22:58:32.546Z,100842.53
2019-06-10T23:01:04.206Z,100843.30
2019-06-10T23:03:33.213Z,100837.03
2019-06-10T23:06:02.780Z,100848.52
2019-06-10T23:08:33.395Z,100854.47
2019-06-10T23:11:03.132Z,100855.25
2019-06-10T23:13:32.649Z,100863.41
2019-06-10T23:16:02.601Z,100855.73
2019-06-10T23:18:33.070Z,100852.46
2019-06-10T23:21:04.320Z,100863.41
2019-06-10T23:23:33.603Z,100864.25
2019-06-10T23:26:03.166Z,100864.33
2019-06-10T23:28:32.847Z,100861.98
2019-06-10T23:31:04.904Z,100854.86
2019-06-10T23:33:33.399Z,100867.71
2019-06-10T23:36:04.097Z,100857.41
2019-06-10T23:38:33.724Z,100863.23
2019-06-10T23:41:03.712Z,100860.13
2019-06-10T23:43:33.540Z,100863.23
2019-06-10T23:46:04.339Z,100878.94
2019-06-10T23:48:34.082Z,100880.94
2019-06-10T23:51:05.094Z,100882.16
2019-06-10T23:53:34.616Z,100882.11
2019-06-10T23:56:05.077Z,100895.38
2019-06-10T23:58:34.606Z,100887.91
